sensor_id;sensor_type;location;lat;lon;timestamp;temperature;humidity
14370;DHT22;7268;50.792;0.252;2023-11-21T00:02:21;9.90;99.90
14370;DHT22;7268;50.792;0.252;2023-11-21T00:04:49;9.90;99.90
14370;DHT22;7268;50.792;0.252;2023-11-21T00:07:15;9.90;99.90
14370;DHT22;7268;50.792;0.252;2023-11-21T00:09:42;9.90;99.90
14370;DHT22;7268;50.792;0.252;2023-11-21T00:12:09;9.90;99.90
14370;DHT22;7268;50.792;0.252;2023-11-21T00:14:37;9.90;99.90
14370;DHT22;7268;50.792;0.252;2023-11-21T00:17:05;9.90;99.90
14370;DHT22;7268;50.792;0.252;2023-11-21T00:19:33;9.90;99.90
14370;DHT22;7268;50.792;0.252;2023-11-21T00:22:01;10.00;99.90
14370;DHT22;7268;50.792;0.252;2023-11-21T00:24:28;10.00;99.90
14370;DHT22;7268;50.792;0.252;2023-11-21T00:26:55;9.90;99.90
14370;DHT22;7268;50.792;0.252;2023-11-21T00:29:22;10.00;99.90
14370;DHT22;7268;50.792;0.252;2023-11-21T00:31:49;10.10;99.90
14370;DHT22;7268;50.792;0.252;2023-11-21T00:34:16;10.10;99.90
14370;DHT22;7268;50.792;0.252;2023-11-21T00:36:43;10.00;99.90
14370;DHT22;7268;50.792;0.252;2023-11-21T00:39:09;10.10;99.90
14370;DHT22;7268;50.792;0.252;2023-11-21T00:41:38;10.00;99.90
14370;DHT22;7268;50.792;0.252;2023-11-21T00:44:05;9.90;99.90
14370;DHT22;7268;50.792;0.252;2023-11-21T00:46:33;10.00;99.90
14370;DHT22;7268;50.792;0.252;2023-11-21T00:49:00;9.80;99.90
14370;DHT22;7268;50.792;0.252;2023-11-21T00:51:27;9.90;99.90
14370;DHT22;7268;50.792;0.252;2023-11-21T00:53:54;9.90;99.90
14370;DHT22;7268;50.792;0.252;2023-11-21T00:56:21;9.90;99.90
14370;DHT22;7268;50.792;0.252;2023-11-21T00:58:48;10.00;99.90
14370;DHT22;7268;50.792;0.252;2023-11-21T01:01:19;9.90;99.90
14370;DHT22;7268;50.792;0.252;2023-11-21T01:03:46;9.90;99.90
14370;DHT22;7268;50.792;0.252;2023-11-21T01:06:13;9.90;99.90
14370;DHT22;7268;50.792;0.252;2023-11-21T01:08:43;10.00;99.90
14370;DHT22;7268;50.792;0.252;2023-11-21T01:11:11;9.90;99.90
14370;DHT22;7268;50.792;0.252;2023-11-21T01:13:39;9.80;99.90
14370;DHT22;7268;50.792;0.252;2023-11-21T01:16:07;9.80;99.90
14370;DHT22;7268;50.792;0.252;2023-11-21T01:18:35;9.80;99.90
14370;DHT22;7268;50.792;0.252;2023-11-21T01:21:02;9.80;99.90
14370;DHT22;7268;50.792;0.252;2023-11-21T01:23:29;9.90;99.90
14370;DHT22;7268;50.792;0.252;2023-11-21T01:25:56;9.90;99.90
14370;DHT22;7268;50.792;0.252;2023-11-21T01:28:23;9.90;99.90
14370;DHT22;7268;50.792;0.252;2023-11-21T01:30:50;9.90;99.90
14370;DHT22;7268;50.792;0.252;2023-11-21T01:33:17;10.00;99.90
14370;DHT22;7268;50.792;0.252;2023-11-21T01:35:45;10.00;99.90
14370;DHT22;7268;50.792;0.252;2023-11-21T01:38:13;10.00;99.90
14370;DHT22;7268;50.792;0.252;2023-11-21T01:40:40;9.90;99.90
14370;DHT22;7268;50.792;0.252;2023-11-21T01:43:07;10.00;99.90
14370;DHT22;7268;50.792;0.252;2023-11-21T01:45:35;9.90;99.90
14370;DHT22;7268;50.792;0.252;2023-11-21T01:48:02;10.00;99.90
14370;DHT22;7268;50.792;0.252;2023-11-21T01:50:30;10.00;99.90
14370;DHT22;7268;50.792;0.252;2023-11-21T01:52:57;10.00;99.90
14370;DHT22;7268;50.792;0.252;2023-11-21T01:55:24;10.00;99.90
14370;DHT22;7268;50.792;0.252;2023-11-21T01:57:55;9.90;99.90
14370;DHT22;7268;50.792;0.252;2023-11-21T02:00:24;9.90;99.90
14370;DHT22;7268;50.792;0.252;2023-11-21T02:02:51;10.00;99.90
14370;DHT22;7268;50.792;0.252;2023-11-21T02:05:19;9.90;99.90
14370;DHT22;7268;50.792;0.252;2023-11-21T02:07:46;9.90;99.90
14370;DHT22;7268;50.792;0.252;2023-11-21T02:10:15;9.90;99.90
14370;DHT22;7268;50.792;0.252;2023-11-21T02:12:43;9.90;99.90
14370;DHT22;7268;50.792;0.252;2023-11-21T02:15:13;9.80;99.90
14370;DHT22;7268;50.792;0.252;2023-11-21T02:17:54;9.80;99.90
14370;DHT22;7268;50.792;0.252;2023-11-21T02:20:22;9.80;99.90
14370;DHT22;7268;50.792;0.252;2023-11-21T02:22:55;9.90;99.90
14370;DHT22;7268;50.792;0.252;2023-11-21T02:25:26;9.90;99.90
14370;DHT22;7268;50.792;0.252;2023-11-21T02:27:58;9.90;99.90
14370;DHT22;7268;50.792;0.252;2023-11-21T02:30:25;9.90;99.90
14370;DHT22;7268;50.792;0.252;2023-11-21T02:32:54;9.90;99.90
14370;DHT22;7268;50.792;0.252;2023-11-21T02:35:24;9.90;99.90
14370;DHT22;7268;50.792;0.252;2023-11-21T02:37:54;9.80;99.90
14370;DHT22;7268;50.792;0.252;2023-11-21T02:40:21;9.90;99.90
14370;DHT22;7268;50.792;0.252;2023-11-21T02:42:48;9.90;99.90
14370;DHT22;7268;50.792;0.252;2023-11-21T02:45:19;9.90;99.90
14370;DHT22;7268;50.792;0.252;2023-11-21T02:47:48;10.00;99.90
14370;DHT22;7268;50.792;0.252;2023-11-21T02:50:16;9.80;99.90
14370;DHT22;7268;50.792;0.252;2023-11-21T02:52:46;9.80;99.90
14370;DHT22;7268;50.792;0.252;2023-11-21T02:55:13;9.70;99.90
14370;DHT22;7268;50.792;0.252;2023-11-21T02:57:41;9.70;99.90
14370;DHT22;7268;50.792;0.252;2023-11-21T03:00:08;9.70;99.90
14370;DHT22;7268;50.792;0.252;2023-11-21T03:02:36;9.70;99.90
14370;DHT22;7268;50.792;0.252;2023-11-21T03:05:07;9.80;99.90
14370;DHT22;7268;50.792;0.252;2023-11-21T03:07:39;9.80;99.90
14370;DHT22;7268;50.792;0.252;2023-11-21T03:10:08;9.90;99.90
14370;DHT22;7268;50.792;0.252;2023-11-21T03:12:39;9.80;99.90
14370;DHT22;7268;50.792;0.252;2023-11-21T03:15:06;9.80;99.90
14370;DHT22;7268;50.792;0.252;2023-11-21T03:17:33;9.80;99.90
14370;DHT22;7268;50.792;0.252;2023-11-21T03:20:01;9.90;99.90
14370;DHT22;7268;50.792;0.252;2023-11-21T03:22:28;9.80;99.90
14370;DHT22;7268;50.792;0.252;2023-11-21T03:24:54;9.80;99.90
14370;DHT22;7268;50.792;0.252;2023-11-21T03:27:21;9.90;99.90
14370;DHT22;7268;50.792;0.252;2023-11-21T03:29:48;9.90;99.90
14370;DHT22;7268;50.792;0.252;2023-11-21T03:32:15;9.90;99.90
14370;DHT22;7268;50.792;0.252;2023-11-21T03:34:57;9.90;99.90
14370;DHT22;7268;50.792;0.252;2023-11-21T03:37:25;10.00;99.90
14370;DHT22;7268;50.792;0.252;2023-11-21T03:39:55;10.00;99.90
14370;DHT22;7268;50.792;0.252;2023-11-21T03:42:23;10.00;99.90
14370;DHT22;7268;50.792;0.252;2023-11-21T03:44:53;10.00;99.90
14370;DHT22;7268;50.792;0.252;2023-11-21T03:47:20;10.00;99.90
14370;DHT22;7268;50.792;0.252;2023-11-21T03:49:47;10.10;99.90
14370;DHT22;7268;50.792;0.252;2023-11-21T03:52:14;10.10;99.90
14370;DHT22;7268;50.792;0.252;2023-11-21T03:54:41;10.00;99.90
14370;DHT22;7268;50.792;0.252;2023-11-21T03:57:07;10.10;99.90
14370;DHT22;7268;50.792;0.252;2023-11-21T03:59:35;10.10;99.90
14370;DHT22;7268;50.792;0.252;2023-11-21T04:02:02;10.10;99.90
14370;DHT22;7268;50.792;0.252;2023-11-21T04:04:29;10.20;99.90
14370;DHT22;7268;50.792;0.252;2023-11-21T04:06:56;10.20;99.90
14370;DHT22;7268;50.792;0.252;2023-11-21T04:09:23;10.20;99.90
14370;DHT22;7268;50.792;0.252;2023-11-21T04:11:52;10.30;99.90
14370;DHT22;7268;50.792;0.252;2023-11-21T04:14:19;10.40;99.90
14370;DHT22;7268;50.792;0.252;2023-11-21T04:16:46;10.40;99.90
14370;DHT22;7268;50.792;0.252;2023-11-21T04:19:14;10.30;99.90
14370;DHT22;7268;50.792;0.252;2023-11-21T04:21:43;10.40;99.90
14370;DHT22;7268;50.792;0.252;2023-11-21T04:24:10;10.40;99.90
14370;DHT22;7268;50.792;0.252;2023-11-21T04:26:37;10.50;99.90
14370;DHT22;7268;50.792;0.252;2023-11-21T04:29:04;10.50;99.90
14370;DHT22;7268;50.792;0.252;2023-11-21T04:31:31;10.50;99.90
14370;DHT22;7268;50.792;0.252;2023-11-21T04:33:59;10.50;99.90
14370;DHT22;7268;50.792;0.252;2023-11-21T04:36:26;10.40;99.90
14370;DHT22;7268;50.792;0.252;2023-11-21T04:38:53;10.50;99.90
14370;DHT22;7268;50.792;0.252;2023-11-21T04:41:19;10.40;99.90
14370;DHT22;7268;50.792;0.252;2023-11-21T04:43:46;10.50;99.90
14370;DHT22;7268;50.792;0.252;2023-11-21T04:46:13;10.50;99.90
14370;DHT22;7268;50.792;0.252;2023-11-21T04:48:40;10.50;99.90
14370;DHT22;7268;50.792;0.252;2023-11-21T04:51:07;10.50;99.90
14370;DHT22;7268;50.792;0.252;2023-11-21T04:53:34;10.50;99.90
14370;DHT22;7268;50.792;0.252;2023-11-21T04:56:01;10.40;99.90
14370;DHT22;7268;50.792;0.252;2023-11-21T04:58:30;10.50;99.90
14370;DHT22;7268;50.792;0.252;2023-11-21T05:00:57;10.50;99.90
14370;DHT22;7268;50.792;0.252;2023-11-21T05:03:24;10.50;99.90
14370;DHT22;7268;50.792;0.252;2023-11-21T05:05:51;10.50;99.90
14370;DHT22;7268;50.792;0.252;2023-11-21T05:08:18;10.50;99.90
14370;DHT22;7268;50.792;0.252;2023-11-21T05:10:46;10.50;99.90
14370;DHT22;7268;50.792;0.252;2023-11-21T05:13:14;10.50;99.90
14370;DHT22;7268;50.792;0.252;2023-11-21T05:15:44;10.40;99.90
14370;DHT22;7268;50.792;0.252;2023-11-21T05:18:11;10.50;99.90
14370;DHT22;7268;50.792;0.252;2023-11-21T05:20:40;10.60;99.90
14370;DHT22;7268;50.792;0.252;2023-11-21T05:23:07;10.50;99.90
14370;DHT22;7268;50.792;0.252;2023-11-21T05:25:34;10.50;99.90
14370;DHT22;7268;50.792;0.252;2023-11-21T05:28:04;10.50;99.90
14370;DHT22;7268;50.792;0.252;2023-11-21T05:30:31;10.50;99.90
14370;DHT22;7268;50.792;0.252;2023-11-21T05:32:58;10.50;99.90
14370;DHT22;7268;50.792;0.252;2023-11-21T05:35:25;10.50;99.90
14370;DHT22;7268;50.792;0.252;2023-11-21T05:37:53;10.40;99.90
14370;DHT22;7268;50.792;0.252;2023-11-21T05:40:20;10.50;99.90
14370;DHT22;7268;50.792;0.252;2023-11-21T05:42:49;10.50;99.90
14370;DHT22;7268;50.792;0.252;2023-11-21T05:45:18;10.50;99.90
14370;DHT22;7268;50.792;0.252;2023-11-21T05:47:46;10.50;99.90
14370;DHT22;7268;50.792;0.252;2023-11-21T05:50:15;10.50;99.90
14370;DHT22;7268;50.792;0.252;2023-11-21T05:52:46;10.40;99.90
14370;DHT22;7268;50.792;0.252;2023-11-21T05:55:13;10.50;99.90
14370;DHT22;7268;50.792;0.252;2023-11-21T05:57:41;10.40;99.90
14370;DHT22;7268;50.792;0.252;2023-11-21T06:00:10;10.40;99.90
14370;DHT22;7268;50.792;0.252;2023-11-21T06:02:41;10.40;99.90
14370;DHT22;7268;50.792;0.252;2023-11-21T06:05:09;10.40;99.90
14370;DHT22;7268;50.792;0.252;2023-11-21T06:07:37;10.50;99.90
14370;DHT22;7268;50.792;0.252;2023-11-21T06:10:05;10.50;99.90
14370;DHT22;7268;50.792;0.252;2023-11-21T06:12:35;10.40;99.90
14370;DHT22;7268;50.792;0.252;2023-11-21T06:15:06;10.40;99.90
14370;DHT22;7268;50.792;0.252;2023-11-21T06:17:35;10.40;99.90
14370;DHT22;7268;50.792;0.252;2023-11-21T06:20:04;10.50;99.90
14370;DHT22;7268;50.792;0.252;2023-11-21T06:22:40;10.40;99.90
14370;DHT22;7268;50.792;0.252;2023-11-21T06:25:08;10.50;99.90
14370;DHT22;7268;50.792;0.252;2023-11-21T06:27:41;10.50;99.90
14370;DHT22;7268;50.792;0.252;2023-11-21T06:30:08;10.40;99.90
14370;DHT22;7268;50.792;0.252;2023-11-21T06:32:36;10.40;99.90
14370;DHT22;7268;50.792;0.252;2023-11-21T06:35:07;10.40;99.90
14370;DHT22;7268;50.792;0.252;2023-11-21T06:37:36;10.40;99.90
14370;DHT22;7268;50.792;0.252;2023-11-21T06:40:04;10.50;99.90
14370;DHT22;7268;50.792;0.252;2023-11-21T06:42:31;10.40;99.90
14370;DHT22;7268;50.792;0.252;2023-11-21T06:44:58;10.30;99.90
14370;DHT22;7268;50.792;0.252;2023-11-21T06:47:25;10.30;99.90
14370;DHT22;7268;50.792;0.252;2023-11-21T06:49:53;10.40;99.90
14370;DHT22;7268;50.792;0.252;2023-11-21T06:52:20;10.20;99.90
14370;DHT22;7268;50.792;0.252;2023-11-21T06:54:47;10.30;99.90
14370;DHT22;7268;50.792;0.252;2023-11-21T06:57:16;10.40;99.90
14370;DHT22;7268;50.792;0.252;2023-11-21T06:59:44;10.30;99.90
14370;DHT22;7268;50.792;0.252;2023-11-21T07:02:11;10.40;99.90
14370;DHT22;7268;50.792;0.252;2023-11-21T07:04:38;10.30;99.90
14370;DHT22;7268;50.792;0.252;2023-11-21T07:07:06;10.30;99.90
14370;DHT22;7268;50.792;0.252;2023-11-21T07:09:34;10.30;99.90
14370;DHT22;7268;50.792;0.252;2023-11-21T07:12:00;10.20;99.90
14370;DHT22;7268;50.792;0.252;2023-11-21T07:14:30;10.20;99.90
14370;DHT22;7268;50.792;0.252;2023-11-21T07:16:57;10.20;99.90
14370;DHT22;7268;50.792;0.252;2023-11-21T07:19:24;10.20;99.90
14370;DHT22;7268;50.792;0.252;2023-11-21T07:21:51;10.20;99.90
14370;DHT22;7268;50.792;0.252;2023-11-21T07:24:18;10.20;99.90
14370;DHT22;7268;50.792;0.252;2023-11-21T07:26:45;10.10;99.90
14370;DHT22;7268;50.792;0.252;2023-11-21T07:29:12;10.10;99.90
14370;DHT22;7268;50.792;0.252;2023-11-21T07:31:40;10.10;99.90
14370;DHT22;7268;50.792;0.252;2023-11-21T07:34:08;10.10;99.90
14370;DHT22;7268;50.792;0.252;2023-11-21T07:36:36;10.10;99.90
14370;DHT22;7268;50.792;0.252;2023-11-21T07:39:03;10.10;99.90
14370;DHT22;7268;50.792;0.252;2023-11-21T07:41:30;10.10;99.90
14370;DHT22;7268;50.792;0.252;2023-11-21T07:43:58;10.00;99.90
14370;DHT22;7268;50.792;0.252;2023-11-21T07:46:26;10.10;99.90
14370;DHT22;7268;50.792;0.252;2023-11-21T07:48:53;10.10;99.90
14370;DHT22;7268;50.792;0.252;2023-11-21T07:51:21;10.10;99.90
14370;DHT22;7268;50.792;0.252;2023-11-21T07:53:48;10.10;99.90
14370;DHT22;7268;50.792;0.252;2023-11-21T07:56:16;10.10;99.90
14370;DHT22;7268;50.792;0.252;2023-11-21T07:58:43;10.10;99.90
14370;DHT22;7268;50.792;0.252;2023-11-21T08:01:11;10.10;99.90
14370;DHT22;7268;50.792;0.252;2023-11-21T08:03:38;10.10;99.90
14370;DHT22;7268;50.792;0.252;2023-11-21T08:06:05;10.10;99.90
14370;DHT22;7268;50.792;0.252;2023-11-21T08:08:33;10.10;99.90
14370;DHT22;7268;50.792;0.252;2023-11-21T08:10:59;10.10;99.90
14370;DHT22;7268;50.792;0.252;2023-11-21T08:13:29;10.10;99.90
14370;DHT22;7268;50.792;0.252;2023-11-21T08:15:59;10.00;99.90
14370;DHT22;7268;50.792;0.252;2023-11-21T08:18:29;10.00;99.90
14370;DHT22;7268;50.792;0.252;2023-11-21T08:20:56;10.10;99.90
14370;DHT22;7268;50.792;0.252;2023-11-21T08:23:24;10.10;99.90
14370;DHT22;7268;50.792;0.252;2023-11-21T08:25:53;10.10;99.90
14370;DHT22;7268;50.792;0.252;2023-11-21T08:28:21;10.20;99.90
14370;DHT22;7268;50.792;0.252;2023-11-21T08:30:53;10.20;99.90
14370;DHT22;7268;50.792;0.252;2023-11-21T08:33:21;10.20;99.90
14370;DHT22;7268;50.792;0.252;2023-11-21T08:35:48;10.10;99.90
14370;DHT22;7268;50.792;0.252;2023-11-21T08:38:15;10.10;99.90
14370;DHT22;7268;50.792;0.252;2023-11-21T08:40:42;10.10;99.90
14370;DHT22;7268;50.792;0.252;2023-11-21T08:43:09;10.10;99.90
14370;DHT22;7268;50.792;0.252;2023-11-21T08:45:38;10.10;99.90
14370;DHT22;7268;50.792;0.252;2023-11-21T08:48:05;10.10;99.90
14370;DHT22;7268;50.792;0.252;2023-11-21T08:50:32;10.10;99.90
14370;DHT22;7268;50.792;0.252;2023-11-21T08:52:59;10.10;99.90
14370;DHT22;7268;50.792;0.252;2023-11-21T08:55:26;10.20;99.90
14370;DHT22;7268;50.792;0.252;2023-11-21T08:57:54;10.20;99.90
14370;DHT22;7268;50.792;0.252;2023-11-21T09:00:23;10.30;99.90
14370;DHT22;7268;50.792;0.252;2023-11-21T09:02:50;10.30;99.90
14370;DHT22;7268;50.792;0.252;2023-11-21T09:05:17;10.20;99.90
14370;DHT22;7268;50.792;0.252;2023-11-21T09:07:45;10.30;99.90
14370;DHT22;7268;50.792;0.252;2023-11-21T09:10:13;10.30;99.90
14370;DHT22;7268;50.792;0.252;2023-11-21T09:12:39;10.20;99.90
14370;DHT22;7268;50.792;0.252;2023-11-21T09:15:07;10.30;99.90
14370;DHT22;7268;50.792;0.252;2023-11-21T09:17:36;10.30;99.90
14370;DHT22;7268;50.792;0.252;2023-11-21T09:20:04;10.40;99.90
14370;DHT22;7268;50.792;0.252;2023-11-21T09:22:32;10.40;99.90
14370;DHT22;7268;50.792;0.252;2023-11-21T09:25:00;10.40;99.90
14370;DHT22;7268;50.792;0.252;2023-11-21T09:27:27;10.40;99.90
14370;DHT22;7268;50.792;0.252;2023-11-21T09:29:53;10.40;99.90
14370;DHT22;7268;50.792;0.252;2023-11-21T09:32:21;10.40;99.90
14370;DHT22;7268;50.792;0.252;2023-11-21T09:34:51;10.50;99.90
14370;DHT22;7268;50.792;0.252;2023-11-21T09:37:18;10.50;99.90
14370;DHT22;7268;50.792;0.252;2023-11-21T09:39:45;10.60;99.90
14370;DHT22;7268;50.792;0.252;2023-11-21T09:42:28;10.70;99.90
14370;DHT22;7268;50.792;0.252;2023-11-21T09:44:58;10.70;99.90
14370;DHT22;7268;50.792;0.252;2023-11-21T09:47:28;10.80;99.90
14370;DHT22;7268;50.792;0.252;2023-11-21T09:49:56;10.80;99.90
14370;DHT22;7268;50.792;0.252;2023-11-21T09:52:27;10.90;99.90
14370;DHT22;7268;50.792;0.252;2023-11-21T09:54:55;10.90;99.90
14370;DHT22;7268;50.792;0.252;2023-11-21T09:57:25;10.80;99.90
14370;DHT22;7268;50.792;0.252;2023-11-21T09:59:54;10.80;99.90
14370;DHT22;7268;50.792;0.252;2023-11-21T10:02:27;10.80;99.90
14370;DHT22;7268;50.792;0.252;2023-11-21T10:04:59;10.70;99.90
14370;DHT22;7268;50.792;0.252;2023-11-21T10:07:28;10.70;99.90
14370;DHT22;7268;50.792;0.252;2023-11-21T10:09:59;10.70;99.90
14370;DHT22;7268;50.792;0.252;2023-11-21T10:12:28;10.80;99.90
14370;DHT22;7268;50.792;0.252;2023-11-21T10:14:57;10.80;99.90
14370;DHT22;7268;50.792;0.252;2023-11-21T10:17:25;10.80;99.90
14370;DHT22;7268;50.792;0.252;2023-11-21T10:19:57;10.80;99.90
14370;DHT22;7268;50.792;0.252;2023-11-21T10:22:25;10.90;99.90
14370;DHT22;7268;50.792;0.252;2023-11-21T10:24:53;11.10;99.90
14370;DHT22;7268;50.792;0.252;2023-11-21T10:27:20;11.10;99.90
14370;DHT22;7268;50.792;0.252;2023-11-21T10:29:47;11.00;99.90
14370;DHT22;7268;50.792;0.252;2023-11-21T10:32:14;11.00;99.90
14370;DHT22;7268;50.792;0.252;2023-11-21T10:34:41;11.10;99.90
14370;DHT22;7268;50.792;0.252;2023-11-21T10:37:12;11.00;99.90
14370;DHT22;7268;50.792;0.252;2023-11-21T10:39:39;11.10;99.90
14370;DHT22;7268;50.792;0.252;2023-11-21T10:42:08;11.10;99.90
14370;DHT22;7268;50.792;0.252;2023-11-21T10:44:36;11.10;99.90
14370;DHT22;7268;50.792;0.252;2023-11-21T10:47:04;11.10;99.90
14370;DHT22;7268;50.792;0.252;2023-11-21T10:49:32;11.20;99.90
14370;DHT22;7268;50.792;0.252;2023-11-21T10:51:59;11.20;99.90
14370;DHT22;7268;50.792;0.252;2023-11-21T10:54:26;11.30;99.90
14370;DHT22;7268;50.792;0.252;2023-11-21T10:56:57;11.40;99.90
14370;DHT22;7268;50.792;0.252;2023-11-21T10:59:29;11.70;99.90
14370;DHT22;7268;50.792;0.252;2023-11-21T11:01:58;12.00;99.90
14370;DHT22;7268;50.792;0.252;2023-11-21T11:04:28;12.30;99.90
14370;DHT22;7268;50.792;0.252;2023-11-21T11:06:57;12.40;99.90
14370;DHT22;7268;50.792;0.252;2023-11-21T11:09:24;12.40;99.90
14370;DHT22;7268;50.792;0.252;2023-11-21T11:11:52;12.60;99.90
14370;DHT22;7268;50.792;0.252;2023-11-21T11:14:20;12.90;99.90
14370;DHT22;7268;50.792;0.252;2023-11-21T11:16:54;13.30;99.90
14370;DHT22;7268;50.792;0.252;2023-11-21T11:19:22;13.70;99.90
14370;DHT22;7268;50.792;0.252;2023-11-21T11:24:33;14.20;99.90
14370;DHT22;7268;50.792;0.252;2023-11-21T11:27:17;14.30;99.90
14370;DHT22;7268;50.792;0.252;2023-11-21T11:36:06;13.60;99.90
14370;DHT22;7268;50.792;0.252;2023-11-21T11:38:35;13.10;99.90
14370;DHT22;7268;50.792;0.252;2023-11-21T11:41:06;12.70;99.90
14370;DHT22;7268;50.792;0.252;2023-11-21T11:43:33;12.40;99.90
14370;DHT22;7268;50.792;0.252;2023-11-21T11:46:12;12.10;99.90
14370;DHT22;7268;50.792;0.252;2023-11-21T11:48:40;12.00;99.90
14370;DHT22;7268;50.792;0.252;2023-11-21T11:51:11;11.80;99.90
14370;DHT22;7268;50.792;0.252;2023-11-21T11:53:42;11.80;99.90
14370;DHT22;7268;50.792;0.252;2023-11-21T11:56:31;11.60;99.90
14370;DHT22;7268;50.792;0.252;2023-11-21T11:59:03;11.70;99.90
14370;DHT22;7268;50.792;0.252;2023-11-21T12:01:32;11.60;99.90
14370;DHT22;7268;50.792;0.252;2023-11-21T12:06:47;11.60;99.90
14370;DHT22;7268;50.792;0.252;2023-11-21T12:09:21;11.60;99.90
14370;DHT22;7268;50.792;0.252;2023-11-21T12:11:49;11.50;99.90
14370;DHT22;7268;50.792;0.252;2023-11-21T12:14:16;11.40;99.90
14370;DHT22;7268;50.792;0.252;2023-11-21T12:16:44;11.40;99.90
14370;DHT22;7268;50.792;0.252;2023-11-21T12:19:12;11.40;99.90
14370;DHT22;7268;50.792;0.252;2023-11-21T12:21:39;11.40;99.90
14370;DHT22;7268;50.792;0.252;2023-11-21T12:24:11;11.40;99.90
14370;DHT22;7268;50.792;0.252;2023-11-21T12:26:41;11.40;99.90
14370;DHT22;7268;50.792;0.252;2023-11-21T12:29:09;11.30;99.90
14370;DHT22;7268;50.792;0.252;2023-11-21T12:31:37;11.40;99.90
14370;DHT22;7268;50.792;0.252;2023-11-21T12:34:04;11.40;99.90
14370;DHT22;7268;50.792;0.252;2023-11-21T12:36:33;11.50;99.90
14370;DHT22;7268;50.792;0.252;2023-11-21T12:39:02;11.40;99.90
14370;DHT22;7268;50.792;0.252;2023-11-21T12:41:29;11.40;99.90
14370;DHT22;7268;50.792;0.252;2023-11-21T12:43:57;11.50;99.90
14370;DHT22;7268;50.792;0.252;2023-11-21T12:46:25;11.60;99.90
14370;DHT22;7268;50.792;0.252;2023-11-21T12:48:56;11.70;99.90
14370;DHT22;7268;50.792;0.252;2023-11-21T12:51:24;11.60;99.90
14370;DHT22;7268;50.792;0.252;2023-11-21T12:53:51;11.60;99.90
14370;DHT22;7268;50.792;0.252;2023-11-21T12:56:21;11.70;99.90
14370;DHT22;7268;50.792;0.252;2023-11-21T12:58:50;11.70;99.90
14370;DHT22;7268;50.792;0.252;2023-11-21T13:01:19;11.80;99.90
14370;DHT22;7268;50.792;0.252;2023-11-21T13:03:49;11.70;99.90
14370;DHT22;7268;50.792;0.252;2023-11-21T13:06:18;11.70;99.90
14370;DHT22;7268;50.792;0.252;2023-11-21T13:08:46;11.70;99.90
14370;DHT22;7268;50.792;0.252;2023-11-21T13:11:13;11.70;99.90
14370;DHT22;7268;50.792;0.252;2023-11-21T13:13:42;11.60;99.90
14370;DHT22;7268;50.792;0.252;2023-11-21T13:16:13;11.60;99.90
14370;DHT22;7268;50.792;0.252;2023-11-21T13:18:40;11.60;99.90
14370;DHT22;7268;50.792;0.252;2023-11-21T13:21:09;11.60;99.90
14370;DHT22;7268;50.792;0.252;2023-11-21T13:23:43;11.60;99.90
14370;DHT22;7268;50.792;0.252;2023-11-21T13:26:13;11.70;99.90
14370;DHT22;7268;50.792;0.252;2023-11-21T13:28:41;11.80;99.90
14370;DHT22;7268;50.792;0.252;2023-11-21T13:31:13;11.80;99.90
14370;DHT22;7268;50.792;0.252;2023-11-21T13:33:59;11.70;99.90
14370;DHT22;7268;50.792;0.252;2023-11-21T13:36:32;11.80;99.90
14370;DHT22;7268;50.792;0.252;2023-11-21T13:39:02;11.80;99.90
14370;DHT22;7268;50.792;0.252;2023-11-21T13:41:34;11.70;99.90
14370;DHT22;7268;50.792;0.252;2023-11-21T13:44:01;11.70;99.90
14370;DHT22;7268;50.792;0.252;2023-11-21T13:46:51;11.70;99.90
14370;DHT22;7268;50.792;0.252;2023-11-21T13:49:18;11.70;99.90
14370;DHT22;7268;50.792;0.252;2023-11-21T13:51:48;11.60;99.90
14370;DHT22;7268;50.792;0.252;2023-11-21T13:54:18;11.60;99.90
14370;DHT22;7268;50.792;0.252;2023-11-21T13:56:47;11.60;99.90
14370;DHT22;7268;50.792;0.252;2023-11-21T13:59:14;11.70;99.90
14370;DHT22;7268;50.792;0.252;2023-11-21T14:01:48;11.60;99.90
14370;DHT22;7268;50.792;0.252;2023-11-21T14:04:23;11.60;99.90
14370;DHT22;7268;50.792;0.252;2023-11-21T14:07:10;11.60;99.90
14370;DHT22;7268;50.792;0.252;2023-11-21T14:09:47;11.50;99.90
14370;DHT22;7268;50.792;0.252;2023-11-21T14:12:15;11.50;99.90
14370;DHT22;7268;50.792;0.252;2023-11-21T14:14:42;11.50;99.90
14370;DHT22;7268;50.792;0.252;2023-11-21T14:17:10;11.40;99.90
14370;DHT22;7268;50.792;0.252;2023-11-21T14:19:37;11.40;99.90
14370;DHT22;7268;50.792;0.252;2023-11-21T14:22:10;11.40;99.90
14370;DHT22;7268;50.792;0.252;2023-11-21T14:24:37;11.40;99.90
14370;DHT22;7268;50.792;0.252;2023-11-21T14:27:04;11.50;99.90
14370;DHT22;7268;50.792;0.252;2023-11-21T14:29:32;11.60;99.90
14370;DHT22;7268;50.792;0.252;2023-11-21T14:32:03;11.60;99.90
14370;DHT22;7268;50.792;0.252;2023-11-21T14:34:32;11.60;99.90
14370;DHT22;7268;50.792;0.252;2023-11-21T14:36:59;11.60;99.90
14370;DHT22;7268;50.792;0.252;2023-11-21T14:39:25;11.70;99.90
14370;DHT22;7268;50.792;0.252;2023-11-21T14:41:56;11.70;99.90
14370;DHT22;7268;50.792;0.252;2023-11-21T14:44:26;11.70;99.90
14370;DHT22;7268;50.792;0.252;2023-11-21T14:46:55;11.70;99.90
14370;DHT22;7268;50.792;0.252;2023-11-21T14:49:25;11.70;99.90
14370;DHT22;7268;50.792;0.252;2023-11-21T14:51:55;11.70;99.90
14370;DHT22;7268;50.792;0.252;2023-11-21T14:54:31;11.60;99.90
14370;DHT22;7268;50.792;0.252;2023-11-21T14:57:13;11.60;99.90
14370;DHT22;7268;50.792;0.252;2023-11-21T14:59:45;11.60;99.90
14370;DHT22;7268;50.792;0.252;2023-11-21T15:02:15;11.60;99.90
14370;DHT22;7268;50.792;0.252;2023-11-21T15:04:43;11.50;99.90
14370;DHT22;7268;50.792;0.252;2023-11-21T15:07:10;11.40;99.90
14370;DHT22;7268;50.792;0.252;2023-11-21T15:09:40;11.20;99.90
14370;DHT22;7268;50.792;0.252;2023-11-21T15:12:09;11.10;99.90
14370;DHT22;7268;50.792;0.252;2023-11-21T15:14:47;11.10;99.90
14370;DHT22;7268;50.792;0.252;2023-11-21T15:17:16;11.10;99.90
14370;DHT22;7268;50.792;0.252;2023-11-21T15:19:52;11.20;99.90
14370;DHT22;7268;50.792;0.252;2023-11-21T15:22:19;11.30;99.90
14370;DHT22;7268;50.792;0.252;2023-11-21T15:24:46;11.30;99.90
14370;DHT22;7268;50.792;0.252;2023-11-21T15:27:16;11.30;99.90
14370;DHT22;7268;50.792;0.252;2023-11-21T15:29:44;11.40;99.90
14370;DHT22;7268;50.792;0.252;2023-11-21T15:32:12;11.40;99.90
14370;DHT22;7268;50.792;0.252;2023-11-21T15:34:39;11.30;99.90
14370;DHT22;7268;50.792;0.252;2023-11-21T15:37:07;11.30;99.90
14370;DHT22;7268;50.792;0.252;2023-11-21T15:39:38;11.20;99.90
14370;DHT22;7268;50.792;0.252;2023-11-21T15:42:06;11.30;99.90
14370;DHT22;7268;50.792;0.252;2023-11-21T15:44:36;11.20;99.90
14370;DHT22;7268;50.792;0.252;2023-11-21T15:47:04;11.20;99.90
14370;DHT22;7268;50.792;0.252;2023-11-21T15:49:33;11.20;99.90
14370;DHT22;7268;50.792;0.252;2023-11-21T15:52:04;11.10;99.90
14370;DHT22;7268;50.792;0.252;2023-11-21T15:54:33;11.10;99.90
14370;DHT22;7268;50.792;0.252;2023-11-21T15:57:01;11.00;99.90
14370;DHT22;7268;50.792;0.252;2023-11-21T15:59:31;11.00;99.90
14370;DHT22;7268;50.792;0.252;2023-11-21T16:02:02;11.00;99.90
14370;DHT22;7268;50.792;0.252;2023-11-21T16:04:32;10.90;99.90
14370;DHT22;7268;50.792;0.252;2023-11-21T16:06:59;10.90;99.90
14370;DHT22;7268;50.792;0.252;2023-11-21T16:09:26;10.80;99.90
14370;DHT22;7268;50.792;0.252;2023-11-21T16:12:05;10.80;99.90